Time;durP1;ratioP1;P1;durP2;ratioP2;P2;SDS_P1;SDS_P2;PMS_P1;PMS_P2;Temp;Humidity;BMP_temperature;BMP_pressure;BME280_temperature;BME280_humidity;BME280_pressure;Samples;Min_cycle;Max_cycle;Signal;HPM_P1;HPM_P2
2022/08/30 00:02:01;;;;;;;3.03;1.00;;;22.60;63.90;;;;;;5094713;28;20048;-64
2022/08/30 00:04:27;;;;;;;2.22;1.00;;;22.60;63.90;;;;;;5094177;28;20044;-64
2022/08/30 00:06:52;;;;;;;3.22;1.02;;;22.60;64.00;;;;;;5093669;28;20044;-63
2022/08/30 00:09:18;;;;;;;3.30;0.93;;;22.60;64.00;;;;;;5093773;28;20044;-64
2022/08/30 00:11:44;;;;;;;2.78;1.40;;;22.60;64.00;;;;;;5094467;28;20051;-64
2022/08/30 00:14:09;;;;;;;1.92;0.98;;;22.60;64.00;;;;;;5093647;28;20096;-64
2022/08/30 00:16:35;;;;;;;1.77;0.80;;;22.60;64.10;;;;;;5093959;28;20048;-64
2022/08/30 00:19:01;;;;;;;1.30;0.70;;;22.60;64.00;;;;;;5094378;28;20074;-64
2022/08/30 00:21:26;;;;;;;1.88;0.80;;;22.60;64.00;;;;;;5093125;28;20081;-64
2022/08/30 00:23:52;;;;;;;2.17;0.80;;;22.60;64.10;;;;;;5094371;28;20676;-64
2022/08/30 00:26:18;;;;;;;1.73;0.80;;;22.60;64.10;;;;;;5092498;28;20040;-64
2022/08/30 00:28:43;;;;;;;1.30;0.73;;;22.60;64.10;;;;;;5093341;28;20083;-64
2022/08/30 00:31:09;;;;;;;3.38;1.05;;;22.60;64.10;;;;;;5094084;28;20036;-64
2022/08/30 00:33:35;;;;;;;2.22;1.00;;;22.60;64.10;;;;;;5093337;28;20083;-64
2022/08/30 00:36:01;;;;;;;1.38;0.73;;;22.60;64.10;;;;;;5093419;28;20119;-64
2022/08/30 00:38:26;;;;;;;1.63;0.80;;;22.60;64.20;;;;;;5093844;28;20036;-64
2022/08/30 00:40:52;;;;;;;1.95;1.13;;;22.60;64.20;;;;;;5093736;28;20498;-64
2022/08/30 00:43:23;;;;;;;1.90;0.90;;;22.60;64.20;;;;;;5092512;28;20040;-64
2022/08/30 00:45:49;;;;;;;1.77;0.80;;;22.60;64.30;;;;;;5093945;28;20036;-64
2022/08/30 00:48:15;;;;;;;2.03;0.80;;;22.60;64.20;;;;;;5093395;28;20384;-64
2022/08/30 00:50:42;;;;;;;1.17;0.60;;;22.60;64.20;;;;;;5091856;28;20090;-64
2022/08/30 00:53:10;;;;;;;2.65;1.10;;;22.60;64.20;;;;;;5109029;28;20043;-64
2022/08/30 00:55:35;;;;;;;1.75;0.77;;;22.60;64.30;;;;;;5109084;28;20733;-64
2022/08/30 00:58:02;;;;;;;1.33;0.70;;;22.60;64.30;;;;;;5074378;28;20047;-64
2022/08/30 01:00:27;;;;;;;2.20;0.95;;;22.60;64.30;;;;;;5092051;28;20052;-64
2022/08/30 01:02:53;;;;;;;2.28;0.80;;;22.60;64.30;;;;;;5092747;28;20044;-64
2022/08/30 01:05:19;;;;;;;1.63;0.77;;;22.50;64.30;;;;;;5092971;28;20047;-64
2022/08/30 01:07:44;;;;;;;1.60;0.80;;;22.50;64.30;;;;;;5108988;28;20067;-64
2022/08/30 01:10:10;;;;;;;1.27;0.70;;;22.60;64.40;;;;;;5092305;28;20040;-64
2022/08/30 01:12:37;;;;;;;2.53;0.80;;;22.50;64.30;;;;;;5091517;28;20047;-64
2022/08/30 01:15:04;;;;;;;1.52;0.80;;;22.50;64.30;;;;;;5092137;28;20050;-64
2022/08/30 01:17:29;;;;;;;1.60;0.70;;;22.50;64.30;;;;;;5091669;28;20391;-64
2022/08/30 01:20:00;;;;;;;2.45;1.00;;;22.50;64.40;;;;;;5092922;28;20036;-65
2022/08/30 01:22:40;;;;;;;2.35;0.65;;;22.50;64.40;;;;;;5109233;28;20052;-64
2022/08/30 01:25:07;;;;;;;1.70;0.82;;;22.50;64.40;;;;;;5092165;28;20138;-64
2022/08/30 01:27:33;;;;;;;2.58;0.88;;;22.50;64.40;;;;;;5074352;28;20458;-64
2022/08/30 01:29:59;;;;;;;1.83;0.80;;;22.50;64.40;;;;;;5108872;28;20036;-64
2022/08/30 01:32:27;;;;;;;1.88;0.90;;;22.50;64.40;;;;;;5090829;28;20044;-64
2022/08/30 01:34:53;;;;;;;2.38;0.82;;;22.50;64.40;;;;;;5092774;28;20448;-64
2022/08/30 01:37:23;;;;;;;1.17;0.60;;;22.50;64.40;;;;;;5092350;28;20582;-64
2022/08/30 01:39:48;;;;;;;1.33;0.70;;;22.50;64.50;;;;;;5107995;28;20063;-64
2022/08/30 01:42:16;;;;;;;2.38;0.85;;;22.50;64.50;;;;;;5092358;28;20036;-64
2022/08/30 01:44:42;;;;;;;1.38;0.90;;;22.50;64.50;;;;;;5092678;28;20502;-64
2022/08/30 01:47:07;;;;;;;1.60;0.80;;;22.50;64.50;;;;;;5091977;28;20038;-64
2022/08/30 01:49:33;;;;;;;1.48;0.80;;;22.50;64.50;;;;;;5092493;28;20417;-64
2022/08/30 01:51:58;;;;;;;1.75;0.70;;;22.50;64.50;;;;;;5092063;28;20036;-64
2022/08/30 01:54:24;;;;;;;1.60;0.80;;;22.50;64.50;;;;;;5092130;28;20040;-64
2022/08/30 01:56:49;;;;;;;1.23;0.60;;;22.50;64.50;;;;;;5092793;28;20040;-64
2022/08/30 01:59:15;;;;;;;1.92;0.90;;;22.50;64.50;;;;;;5091365;28;20048;-64
2022/08/30 02:01:41;;;;;;;1.45;0.65;;;22.50;64.50;;;;;;5090986;28;20044;-64
2022/08/30 02:04:07;;;;;;;1.45;0.60;;;22.50;64.60;;;;;;5091135;28;20051;-64
2022/08/30 02:06:32;;;;;;;1.88;0.68;;;22.50;64.60;;;;;;5090935;28;20044;-64
2022/08/30 02:08:58;;;;;;;1.08;0.70;;;22.50;64.60;;;;;;5092072;28;20097;-64
2022/08/30 02:11:24;;;;;;;1.60;0.80;;;22.50;64.60;;;;;;5092113;28;20039;-64
2022/08/30 02:13:49;;;;;;;1.77;0.85;;;22.50;64.60;;;;;;5090849;28;20126;-64
2022/08/30 02:16:17;;;;;;;1.35;0.80;;;22.50;64.60;;;;;;5092213;28;20075;-64
2022/08/30 02:18:43;;;;;;;1.30;0.85;;;22.50;64.60;;;;;;5092559;28;20044;-64
2022/08/30 02:21:08;;;;;;;1.08;0.65;;;22.50;64.60;;;;;;5090483;28;20051;-64
2022/08/30 02:23:34;;;;;;;2.08;0.90;;;22.50;64.70;;;;;;5091905;28;20054;-64
2022/08/30 02:26:00;;;;;;;1.88;0.70;;;22.40;64.60;;;;;;5092308;28;20044;-64
2022/08/30 02:28:25;;;;;;;1.70;0.80;;;22.40;64.60;;;;;;5091426;28;20124;-64
2022/08/30 02:30:51;;;;;;;0.82;0.60;;;22.40;64.70;;;;;;5092270;28;20048;-64
2022/08/30 02:33:17;;;;;;;2.63;0.80;;;22.40;64.70;;;;;;5091695;28;20044;-64
2022/08/30 02:35:42;;;;;;;2.00;0.70;;;22.40;64.70;;;;;;5124422;28;20040;-64
2022/08/30 02:38:09;;;;;;;1.80;0.73;;;22.40;64.70;;;;;;5091908;28;20400;-64
2022/08/30 02:40:34;;;;;;;1.30;0.88;;;22.40;64.70;;;;;;5091875;28;20135;-64
2022/08/30 02:43:00;;;;;;;1.90;0.95;;;22.40;64.70;;;;;;5090025;28;20048;-64
2022/08/30 02:45:26;;;;;;;1.75;0.80;;;22.40;64.70;;;;;;5091686;28;20040;-64
2022/08/30 02:47:51;;;;;;;2.03;0.90;;;22.40;64.70;;;;;;5092044;28;20043;-64
2022/08/30 02:50:17;;;;;;;1.92;0.82;;;22.40;64.70;;;;;;5089880;28;20059;-64
2022/08/30 02:52:43;;;;;;;1.90;0.60;;;22.40;64.80;;;;;;5091783;28;20076;-64
2022/08/30 02:55:09;;;;;;;1.17;0.60;;;22.40;64.80;;;;;;5091997;28;20040;-64
2022/08/30 02:57:34;;;;;;;2.05;0.80;;;22.40;64.80;;;;;;5091024;28;20089;-64
2022/08/30 03:00:00;;;;;;;1.00;0.60;;;22.40;64.80;;;;;;5124894;28;20040;-64
2022/08/30 03:02:27;;;;;;;1.65;0.70;;;22.40;64.80;;;;;;5091007;28;20044;-64
2022/08/30 03:04:53;;;;;;;1.17;0.70;;;22.40;64.80;;;;;;5091799;28;20040;-64
2022/08/30 03:07:19;;;;;;;1.80;0.90;;;22.40;64.80;;;;;;5091551;28;20048;-64
2022/08/30 03:09:44;;;;;;;1.17;0.60;;;22.40;64.90;;;;;;5089818;28;20040;-64
2022/08/30 03:12:11;;;;;;;1.25;0.70;;;22.40;64.90;;;;;;5091777;28;20052;-64
2022/08/30 03:14:37;;;;;;;1.35;0.60;;;22.40;64.90;;;;;;5091765;28;20484;-64
2022/08/30 03:17:06;;;;;;;2.88;0.80;;;22.40;64.90;;;;;;5093759;28;20377;-63
2022/08/30 03:19:32;;;;;;;0.85;0.60;;;22.40;64.90;;;;;;5094469;28;20052;-64
2022/08/30 03:21:58;;;;;;;2.05;0.90;;;22.40;64.90;;;;;;5095469;28;20039;-64
2022/08/30 03:24:24;;;;;;;1.65;0.70;;;22.40;64.90;;;;;;5092888;28;20093;-64
2022/08/30 03:26:50;;;;;;;1.50;0.80;;;22.40;64.90;;;;;;5095725;28;20051;-64
2022/08/30 03:29:16;;;;;;;1.48;0.70;;;22.40;64.90;;;;;;5094864;28;20044;-64
2022/08/30 03:31:41;;;;;;;1.50;0.60;;;22.40;64.90;;;;;;5094428;28;20040;-64
2022/08/30 03:34:09;;;;;;;1.70;0.80;;;22.40;64.90;;;;;;5094929;28;20134;-64
2022/08/30 03:36:37;;;;;;;1.40;0.70;;;22.30;64.90;;;;;;5094800;28;20504;-65
2022/08/30 03:39:06;;;;;;;1.20;0.70;;;22.30;64.90;;;;;;5094349;28;20044;-64
2022/08/30 03:41:32;;;;;;;1.23;0.60;;;22.30;65.00;;;;;;5093409;28;20040;-64
2022/08/30 03:43:58;;;;;;;1.73;0.80;;;22.30;64.90;;;;;;5094832;28;20078;-64
2022/08/30 03:46:24;;;;;;;1.23;0.82;;;22.30;64.90;;;;;;5094162;28;20551;-64
2022/08/30 03:48:50;;;;;;;1.60;0.60;;;22.30;64.90;;;;;;5094964;28;20083;-64
2022/08/30 03:51:17;;;;;;;1.33;0.80;;;22.30;65.50;;;;;;5094638;28;20048;-64
2022/08/30 03:53:42;;;;;;;1.08;0.65;;;22.30;65.00;;;;;;5094229;28;20071;-64
2022/08/30 03:56:08;;;;;;;2.28;0.80;;;22.30;65.00;;;;;;5094608;28;20067;-64
2022/08/30 03:58:34;;;;;;;1.80;0.70;;;22.30;65.00;;;;;;5093845;28;20040;-64
2022/08/30 04:00:59;;;;;;;1.40;0.70;;;22.20;65.00;;;;;;5094036;28;20090;-64
2022/08/30 04:03:25;;;;;;;1.20;0.55;;;22.30;65.00;;;;;;5092869;28;20040;-64
2022/08/30 04:05:53;;;;;;;0.93;0.70;;;22.30;65.00;;;;;;5092874;28;20047;-64
2022/08/30 04:08:19;;;;;;;1.60;0.70;;;22.30;65.00;;;;;;5094054;28;20090;-65
2022/08/30 04:10:46;;;;;;;1.52;0.73;;;22.30;65.00;;;;;;5093946;28;20044;-64
2022/08/30 04:13:15;;;;;;;1.15;0.70;;;22.30;65.00;;;;;;5093868;28;20051;-64
2022/08/30 04:15:40;;;;;;;1.52;0.80;;;22.30;65.00;;;;;;5094555;28;20118;-64
2022/08/30 04:18:06;;;;;;;1.02;0.63;;;22.30;65.10;;;;;;5094213;28;20127;-64
2022/08/30 04:20:32;;;;;;;1.73;0.60;;;22.30;65.00;;;;;;5093308;28;20050;-64
2022/08/30 04:22:58;;;;;;;1.92;0.73;;;22.30;65.00;;;;;;5093201;28;20051;-64
2022/08/30 04:25:24;;;;;;;1.48;0.70;;;22.20;65.00;;;;;;5093653;28;20036;-64
2022/08/30 04:27:49;;;;;;;1.67;0.82;;;22.20;65.00;;;;;;5092594;28;20083;-64
2022/08/30 04:30:15;;;;;;;1.50;0.65;;;22.20;65.10;;;;;;5093835;28;20043;-64
2022/08/30 04:32:41;;;;;;;1.20;0.80;;;22.20;65.10;;;;;;5093815;28;20483;-64
2022/08/30 04:35:08;;;;;;;2.65;0.60;;;22.20;65.10;;;;;;5093431;28;20072;-64
2022/08/30 04:37:33;;;;;;;2.15;0.85;;;22.20;65.10;;;;;;5093616;28;20062;-64
2022/08/30 04:39:59;;;;;;;1.55;0.70;;;22.20;65.00;;;;;;5092509;28;20036;-64
2022/08/30 04:42:30;;;;;;;1.20;0.70;;;22.20;65.10;;;;;;5093041;28;20044;-64
2022/08/30 04:44:56;;;;;;;1.20;0.50;;;22.20;65.10;;;;;;5094000;28;20040;-64
2022/08/30 04:47:22;;;;;;;1.52;0.70;;;22.20;65.10;;;;;;5093445;28;20552;-64
2022/08/30 04:49:47;;;;;;;1.45;0.70;;;22.20;65.10;;;;;;5093141;28;20028;-64
2022/08/30 04:52:13;;;;;;;1.15;0.63;;;22.20;65.10;;;;;;5093770;28;20087;-64
2022/08/30 04:54:38;;;;;;;1.30;0.60;;;22.20;65.10;;;;;;5093873;28;20491;-64
2022/08/30 04:57:05;;;;;;;0.80;0.60;;;22.20;65.10;;;;;;5092822;28;20040;-64
2022/08/30 04:59:32;;;;;;;1.00;0.60;;;22.20;65.10;;;;;;5093227;28;20036;-64
2022/08/30 05:01:58;;;;;;;2.08;0.90;;;22.20;65.10;;;;;;5092652;28;20471;-64
2022/08/30 05:04:23;;;;;;;1.40;0.70;;;22.20;65.10;;;;;;5091716;28;20047;-65
2022/08/30 05:06:49;;;;;;;1.02;0.60;;;22.20;65.20;;;;;;5093290;28;20122;-64
2022/08/30 05:09:14;;;;;;;1.30;0.90;;;22.20;65.10;;;;;;5092064;28;20434;-64
2022/08/30 05:11:42;;;;;;;1.73;0.70;;;22.20;65.20;;;;;;5093297;28;20101;-64
2022/08/30 05:14:07;;;;;;;0.85;0.60;;;22.20;65.20;;;;;;5092921;28;20471;-64
2022/08/30 05:16:33;;;;;;;1.73;0.70;;;22.20;65.20;;;;;;5092220;28;20123;-64
2022/08/30 05:18:59;;;;;;;0.95;0.50;;;22.20;65.20;;;;;;5092148;28;20036;-64
2022/08/30 05:21:25;;;;;;;1.35;0.70;;;22.20;65.20;;;;;;5092611;28;20040;-64
2022/08/30 05:23:55;;;;;;;1.42;0.63;;;22.20;65.20;;;;;;5092435;28;20051;-64
2022/08/30 05:26:31;;;;;;;1.48;0.70;;;22.20;65.20;;;;;;5092879;28;20040;-64
2022/08/30 05:28:57;;;;;;;1.15;0.70;;;22.20;65.20;;;;;;5093138;28;20178;-64
2022/08/30 05:31:28;;;;;;;0.65;0.50;;;22.10;65.10;;;;;;5091623;28;20123;-64
2022/08/30 05:33:54;;;;;;;1.95;0.73;;;22.10;65.10;;;;;;5092742;28;20056;-64
2022/08/30 05:36:22;;;;;;;2.15;0.77;;;22.10;65.10;;;;;;5092679;28;20043;-64
2022/08/30 05:38:48;;;;;;;1.75;0.70;;;22.10;65.10;;;;;;5092043;28;20051;-64
2022/08/30 05:41:14;;;;;;;1.48;0.70;;;22.20;65.10;;;;;;5092311;28;20111;-64
2022/08/30 05:43:39;;;;;;;0.75;0.57;;;22.10;65.10;;;;;;5091390;28;20570;-64
2022/08/30 05:46:10;;;;;;;1.27;0.80;;;22.20;65.20;;;;;;5092062;28;20605;-64
2022/08/30 05:48:35;;;;;;;1.70;0.73;;;22.10;65.10;;;;;;5092596;28;20059;-64
2022/08/30 05:51:23;;;;;;;1.95;0.68;;;22.20;65.10;;;;;;5092427;28;20032;-64
2022/08/30 05:53:49;;;;;;;1.95;0.82;;;22.10;65.10;;;;;;5091242;28;20479;-64
2022/08/30 05:56:17;;;;;;;0.88;0.55;;;22.10;65.10;;;;;;5092025;28;20483;-65
2022/08/30 05:58:43;;;;;;;1.27;0.65;;;22.10;65.10;;;;;;5092002;28;20048;-64
2022/08/30 06:01:18;;;;;;;1.55;0.73;;;22.10;65.10;;;;;;5092396;28;20119;-64
2022/08/30 06:03:44;;;;;;;1.58;0.68;;;22.10;65.10;;;;;;5092243;28;20074;-64
2022/08/30 06:06:09;;;;;;;2.00;0.70;;;22.10;65.10;;;;;;5091421;28;20554;-64
2022/08/30 06:08:35;;;;;;;0.82;0.60;;;22.10;65.10;;;;;;5092238;28;20044;-64
2022/08/30 06:11:00;;;;;;;1.42;0.80;;;22.10;65.10;;;;;;5092548;28;20046;-64
2022/08/30 06:13:26;;;;;;;1.25;0.70;;;22.10;65.10;;;;;;5091208;28;20128;-64
2022/08/30 06:15:51;;;;;;;2.30;0.90;;;22.10;65.10;;;;;;5092542;28;20131;-64
2022/08/30 06:18:17;;;;;;;2.75;0.80;;;22.10;65.10;;;;;;5091967;28;20082;-65
2022/08/30 06:20:43;;;;;;;2.72;0.90;;;22.20;65.10;;;;;;5090443;28;20476;-64
2022/08/30 06:23:09;;;;;;;1.42;0.80;;;22.20;65.10;;;;;;5090787;28;20071;-63
2022/08/30 06:25:36;;;;;;;5.20;1.02;;;22.20;65.20;;;;;;5091838;28;20063;-63
2022/08/30 06:28:03;;;;;;;5.22;1.00;;;22.20;65.40;;;;;;5091787;28;20100;-66
2022/08/30 06:30:29;;;;;;;4.03;0.95;;;22.20;65.50;;;;;;5091960;28;20032;-65
2022/08/30 06:32:54;;;;;;;2.90;0.80;;;22.20;65.50;;;;;;5092047;28;20071;-65
2022/08/30 06:35:20;;;;;;;4.43;1.10;;;22.20;65.40;;;;;;5091331;28;20462;-65
2022/08/30 06:37:45;;;;;;;3.33;1.05;;;22.20;65.50;;;;;;5090824;28;20106;-65
2022/08/30 06:40:12;;;;;;;3.22;0.90;;;22.20;65.50;;;;;;5092103;28;20032;-65
2022/08/30 06:42:37;;;;;;;2.05;0.80;;;22.20;65.50;;;;;;5090881;28;20075;-65
2022/08/30 06:45:03;;;;;;;4.97;1.00;;;22.20;65.50;;;;;;5091901;28;20087;-64
2022/08/30 06:47:29;;;;;;;3.08;0.80;;;22.20;65.50;;;;;;5089800;28;20512;-65
2022/08/30 06:49:55;;;;;;;3.72;1.00;;;22.20;65.60;;;;;;5090818;28;20044;-65
2022/08/30 06:52:21;;;;;;;3.15;0.90;;;22.20;65.50;;;;;;5094304;28;20043;-64
2022/08/30 06:54:46;;;;;;;3.20;0.90;;;22.20;65.70;;;;;;5094784;28;20052;-64
2022/08/30 06:57:12;;;;;;;4.68;0.82;;;22.30;65.90;;;;;;5096074;28;20044;-64
2022/08/30 06:59:38;;;;;;;2.00;0.90;;;22.30;65.90;;;;;;5094337;28;20052;-64
2022/08/30 07:02:04;;;;;;;2.28;1.00;;;22.30;66.00;;;;;;5094991;28;20476;-64
2022/08/30 07:04:30;;;;;;;3.45;1.13;;;22.30;66.00;;;;;;5095446;28;20040;-64
2022/08/30 07:06:56;;;;;;;3.83;1.00;;;22.30;66.00;;;;;;5095516;28;20109;-63
2022/08/30 07:09:21;;;;;;;2.83;1.10;;;22.30;66.00;;;;;;5094068;28;20055;-64
2022/08/30 07:11:47;;;;;;;2.50;1.17;;;22.40;66.00;;;;;;5095781;28;20055;-64
2022/08/30 07:14:12;;;;;;;1.98;0.80;;;22.40;66.00;;;;;;5095547;28;20047;-63
2022/08/30 07:16:38;;;;;;;3.40;1.00;;;22.40;66.00;;;;;;5093207;28;20381;-63
2022/08/30 07:19:04;;;;;;;6.50;0.90;;;22.40;66.00;;;;;;5095580;28;20564;-64
2022/08/30 07:21:33;;;;;;;4.43;0.80;;;22.40;66.00;;;;;;5094976;28;20476;-63
2022/08/30 07:23:59;;;;;;;1.77;0.90;;;22.40;66.00;;;;;;5094536;28;20514;-64
2022/08/30 07:26:28;;;;;;;2.97;1.00;;;22.40;66.00;;;;;;5095160;28;20052;-64
2022/08/30 07:28:53;;;;;;;1.90;0.73;;;22.40;66.00;;;;;;5094856;28;20553;-64
2022/08/30 07:31:19;;;;;;;2.17;0.85;;;22.40;66.10;;;;;;5092949;28;20040;-63
2022/08/30 07:33:45;;;;;;;3.08;1.00;;;22.50;66.10;;;;;;5094871;28;20101;-63
2022/08/30 07:36:11;;;;;;;2.47;0.90;;;22.50;66.20;;;;;;5095026;28;20040;-64
2022/08/30 07:38:36;;;;;;;3.15;0.88;;;22.50;66.20;;;;;;5093957;28;20054;-64
2022/08/30 07:41:02;;;;;;;2.28;0.80;;;22.50;66.20;;;;;;5093510;28;20133;-64
2022/08/30 07:43:28;;;;;;;3.30;0.85;;;22.50;66.20;;;;;;5094506;28;20124;-65
2022/08/30 07:45:54;;;;;;;2.20;0.90;;;22.50;66.20;;;;;;5094184;28;20040;-64
2022/08/30 07:48:20;;;;;;;2.40;0.82;;;22.50;66.10;;;;;;5094133;28;20056;-65
2022/08/30 07:50:45;;;;;;;2.25;0.63;;;22.50;66.10;;;;;;5094314;28;20514;-64
2022/08/30 07:53:11;;;;;;;3.92;0.90;;;22.60;66.10;;;;;;5093751;28;20562;-65
2022/08/30 07:55:37;;;;;;;3.22;0.80;;;22.60;66.10;;;;;;5094217;28;20407;-64
2022/08/30 07:58:03;;;;;;;3.05;1.00;;;22.60;66.10;;;;;;5092933;28;20097;-66
2022/08/30 08:00:28;;;;;;;3.50;0.75;;;22.60;65.90;;;;;;5094649;28;20040;-64
2022/08/30 08:02:54;;;;;;;2.03;0.70;;;22.60;65.80;;;;;;5094096;28;20044;-64
2022/08/30 08:05:20;;;;;;;2.28;0.80;;;22.60;65.70;;;;;;5093358;28;20147;-65
2022/08/30 08:07:45;;;;;;;2.10;0.80;;;22.70;65.60;;;;;;5094616;28;20048;-64
2022/08/30 08:10:12;;;;;;;3.25;0.90;;;22.70;65.50;;;;;;5093024;28;20051;-65
2022/08/30 08:12:38;;;;;;;1.42;0.70;;;22.70;65.40;;;;;;5093217;28;20450;-64
2022/08/30 08:15:04;;;;;;;2.80;0.90;;;22.70;65.30;;;;;;5094523;28;20044;-65
2022/08/30 08:17:29;;;;;;;2.30;0.63;;;22.70;65.20;;;;;;5092416;28;20036;-64
2022/08/30 08:19:55;;;;;;;3.50;0.85;;;22.70;65.10;;;;;;5092571;28;20048;-64
2022/08/30 08:22:20;;;;;;;3.72;1.00;;;22.70;64.90;;;;;;5094162;28;20044;-64
2022/08/30 08:24:46;;;;;;;1.73;0.93;;;22.70;64.80;;;;;;5092852;28;20044;-64
2022/08/30 08:27:11;;;;;;;1.35;0.73;;;22.80;64.70;;;;;;5093330;28;20052;-64
2022/08/30 08:29:37;;;;;;;1.65;0.68;;;22.80;64.70;;;;;;5093015;28;20036;-64
2022/08/30 08:32:03;;;;;;;2.28;0.70;;;22.80;64.60;;;;;;5092542;28;20407;-64
2022/08/30 08:34:28;;;;;;;3.97;0.88;;;22.80;64.40;;;;;;5092621;28;20063;-63
2022/08/30 08:36:54;;;;;;;3.42;0.88;;;22.90;64.40;;;;;;5094207;28;20044;-62
2022/08/30 08:39:19;;;;;;;2.70;0.60;;;22.80;64.10;;;;;;5093552;28;20044;-63
2022/08/30 08:42:03;;;;;;;2.00;0.77;;;22.90;63.80;;;;;;5093110;28;20043;-62
2022/08/30 08:44:49;;;;;;;5.05;0.80;;;22.80;63.10;;;;;;5091943;28;20047;-63
2022/08/30 08:47:25;;;;;;;2.88;0.60;;;22.80;63.00;;;;;;5091482;28;20791;-64
2022/08/30 08:49:51;;;;;;;2.88;0.85;;;22.80;62.90;;;;;;5075405;28;20097;-64
2022/08/30 08:55:15;;;;;;;2.15;0.70;;;22.80;62.50;;;;;;5091768;28;20052;-63
2022/08/30 08:57:40;;;;;;;3.38;1.10;;;22.80;62.40;;;;;;5075075;28;20048;-64
2022/08/30 09:00:07;;;;;;;3.85;0.90;;;22.80;62.20;;;;;;5093481;28;20044;-64
2022/08/30 09:02:39;;;;;;;2.55;0.73;;;22.70;62.00;;;;;;5092407;28;20716;-64
2022/08/30 09:05:05;;;;;;;2.85;0.70;;;22.70;61.70;;;;;;5092440;28;20040;-63
2022/08/30 09:07:34;;;;;;;1.95;0.73;;;22.70;61.50;;;;;;5093089;28;20066;-63
2022/08/30 09:09:59;;;;;;;2.70;0.80;;;22.70;61.20;;;;;;5125247;27;20036;-63
2022/08/30 09:12:26;;;;;;;2.17;0.70;;;22.70;61.00;;;;;;5091906;28;20047;-63
2022/08/30 09:15:16;;;;;;;2.58;0.93;;;22.70;60.70;;;;;;5091509;28;20499;-63
2022/08/30 09:17:58;;;;;;;2.55;0.90;;;22.70;60.40;;;;;;5089957;28;20105;-63
2022/08/30 09:20:31;;;;;;;3.65;0.88;;;22.70;60.20;;;;;;5092950;28;20044;-63
2022/08/30 09:22:57;;;;;;;2.20;0.73;;;22.70;60.20;;;;;;5092472;28;20058;-64
2022/08/30 09:25:28;;;;;;;1.48;0.63;;;22.70;60.00;;;;;;5091151;28;20492;-63
2022/08/30 09:27:55;;;;;;;2.28;0.50;;;22.60;59.50;;;;;;5093218;28;20043;-63
2022/08/30 09:30:25;;;;;;;2.22;0.70;;;22.60;59.20;;;;;;5090555;28;20043;-63
2022/08/30 09:32:55;;;;;;;4.60;0.95;;;22.60;58.90;;;;;;5092952;28;20102;-63
2022/08/30 09:35:41;;;;;;;2.13;0.70;;;22.60;58.60;;;;;;5092465;28;20436;-63
2022/08/30 09:38:11;;;;;;;3.15;0.70;;;22.60;58.40;;;;;;5092321;28;20048;-63
2022/08/30 09:40:37;;;;;;;2.47;0.70;;;22.60;58.00;;;;;;5074362;28;20391;-64
2022/08/30 09:43:03;;;;;;;5.75;1.27;;;22.60;57.90;;;;;;5091474;28;20048;-65
2022/08/30 09:45:37;;;;;;;2.95;0.77;;;22.60;58.30;;;;;;5091511;28;20139;-64
2022/08/30 09:48:26;;;;;;;5.38;1.10;;;22.60;58.50;;;;;;5092763;28;20035;-64
2022/08/30 09:51:08;;;;;;;4.75;0.90;;;22.60;58.60;;;;;;5092153;28;20036;-64
2022/08/30 09:53:37;;;;;;;6.45;1.30;;;22.60;58.80;;;;;;5091237;28;20097;-64
2022/08/30 09:56:02;;;;;;;;;;;22.60;58.80;;;;;;5104422;28;20105;-64
2022/08/30 09:59:05;;;;;;;3.15;1.08;;;22.60;59.10;;;;;;5077952;28;20367;-63
2022/08/30 10:01:42;;;;;;;3.95;1.05;;;22.60;59.00;;;;;;5087319;28;20066;-63
2022/08/30 10:04:27;;;;;;;2.80;1.07;;;22.60;58.90;;;;;;5080517;28;20060;-63
2022/08/30 10:06:56;;;;;;;2.47;0.90;;;22.60;58.70;;;;;;5090179;28;20337;-63
2022/08/30 10:09:46;;;;;;;2.78;0.90;;;22.60;58.60;;;;;;5090282;28;20044;-63
2022/08/30 10:12:19;;;;;;;2.75;0.70;;;22.60;57.90;;;;;;5090471;28;20072;-63
2022/08/30 10:14:54;;;;;;;3.00;1.08;;;22.60;57.90;;;;;;5091397;28;20051;-63
2022/08/30 10:17:33;;;;;;;6.82;1.17;;;22.60;57.80;;;;;;5091950;28;20483;-63
2022/08/30 10:20:15;;;;;;;3.03;1.02;;;22.70;57.90;;;;;;5091634;28;20044;-63
2022/08/30 10:22:47;;;;;;;2.53;0.80;;;22.60;57.80;;;;;;5107778;28;20055;-63
2022/08/30 10:25:20;;;;;;;4.57;0.80;;;22.70;57.90;;;;;;5091089;28;20040;-62
2022/08/30 10:27:54;;;;;;;2.55;0.95;;;22.70;57.80;;;;;;5094744;28;20055;-62
2022/08/30 10:30:19;;;;;;;1.95;0.70;;;22.70;57.80;;;;;;5095039;28;20051;-62
2022/08/30 10:32:47;;;;;;;2.47;0.70;;;22.70;57.70;;;;;;5094058;28;20039;-62
2022/08/30 10:35:16;;;;;;;2.65;0.90;;;22.70;58.40;;;;;;5094332;28;20156;-62
2022/08/30 10:37:49;;;;;;;2.63;0.85;;;22.70;57.60;;;;;;5095160;28;20047;-62
2022/08/30 10:43:12;;;;;;;3.45;0.65;;;22.70;57.50;;;;;;5095081;28;20051;-62
2022/08/30 10:45:39;;;;;;;2.80;0.60;;;22.70;57.60;;;;;;5077859;28;20047;-64
2022/08/30 10:48:28;;;;;;;3.83;1.00;;;22.60;57.30;;;;;;5093293;28;20431;-63
2022/08/30 10:50:55;;;;;;;2.92;0.80;;;22.70;57.50;;;;;;5093551;28;20440;-62
2022/08/30 10:53:29;;;;;;;2.38;0.88;;;22.60;57.50;;;;;;5093972;28;20495;-62
2022/08/30 10:56:09;;;;;;;3.20;1.00;;;22.70;57.60;;;;;;5075161;28;20071;-62
2022/08/30 10:58:37;;;;;;;2.30;0.60;;;22.70;57.40;;;;;;5093247;28;20522;-62
2022/08/30 11:01:12;;;;;;;;;;;22.70;57.60;;;;;;5094878;28;20107;-63
2022/08/30 11:03:47;;;;;;;2.25;0.75;;;22.70;57.80;;;;;;5091738;28;19928;-63
2022/08/30 11:06:31;;;;;;;3.15;0.98;;;22.70;57.70;;;;;;5094215;28;20036;-63
2022/08/30 11:09:41;;;;;;;2.92;0.80;;;22.70;57.70;;;;;;5091449;28;20047;-63
2022/08/30 11:12:20;;;;;;;1.98;0.52;;;22.70;57.70;;;;;;5032228;28;20045;-63
2022/08/30 11:14:45;;;;;;;1.60;0.50;;;22.70;57.60;;;;;;5086489;28;20056;-63
2022/08/30 11:17:38;;;;;;;6.07;0.70;;;22.70;57.60;;;;;;5094147;28;20043;-63
2022/08/30 11:20:04;;;;;;;3.17;0.70;;;22.70;57.70;;;;;;5092842;28;20044;-63
2022/08/30 11:22:34;;;;;;;1.73;0.90;;;22.70;57.80;;;;;;5094027;28;20036;-63
2022/08/30 11:25:15;;;;;;;3.03;0.82;;;22.70;57.70;;;;;;5093772;28;20071;-63
2022/08/30 11:27:48;;;;;;;2.47;0.70;;;22.70;57.70;;;;;;5093769;28;20386;-64
2022/08/30 11:30:25;;;;;;;2.80;0.65;;;22.70;57.60;;;;;;5090340;28;20086;-63
2022/08/30 11:33:05;;;;;;;2.80;0.80;;;22.70;57.60;;;;;;5090415;28;20093;-63
2022/08/30 11:35:36;;;;;;;1.77;0.57;;;22.70;57.60;;;;;;5056920;28;20055;-64
2022/08/30 11:38:25;;;;;;;1.98;0.70;;;22.70;57.70;;;;;;5093583;28;20505;-63
2022/08/30 11:40:54;;;;;;;2.08;0.68;;;22.70;57.60;;;;;;5091917;28;20036;-63
2022/08/30 11:43:38;;;;;;;2.08;0.70;;;22.70;57.70;;;;;;5092597;28;20071;-63
2022/08/30 11:46:26;;;;;;;1.27;0.60;;;22.70;57.60;;;;;;5093528;28;20054;-64
2022/08/30 11:49:11;;;;;;;2.13;0.88;;;22.70;57.60;;;;;;5091903;28;20048;-63
2022/08/30 11:52:08;;;;;;;5.88;0.98;;;22.70;57.70;;;;;;5091079;28;20499;-63
2022/08/30 11:54:55;;;;;;;3.78;0.70;;;22.70;57.60;;;;;;5093020;28;20056;-63
2022/08/30 11:57:43;;;;;;;4.10;0.63;;;22.80;57.70;;;;;;5092517;28;20046;-63
2022/08/30 12:00:25;;;;;;;3.35;0.73;;;22.80;57.70;;;;;;5093543;28;20352;-63
2022/08/30 12:02:58;;;;;;;3.05;0.60;;;22.70;57.60;;;;;;5093367;28;20039;-63
2022/08/30 12:05:43;;;;;;;1.73;0.57;;;22.70;57.60;;;;;;5092803;28;20044;-63
2022/08/30 12:08:09;;;;;;;1.95;0.77;;;22.70;57.60;;;;;;5093216;28;20048;-64
2022/08/30 12:10:43;;;;;;;3.15;0.65;;;22.80;57.50;;;;;;5094337;28;20112;-63
2022/08/30 12:13:10;;;;;;;2.90;0.90;;;22.70;57.50;;;;;;5075597;28;20060;-63
2022/08/30 12:16:10;;;;;;;1.48;0.60;;;22.80;57.60;;;;;;5076013;28;20040;-63
2022/08/30 12:18:37;;;;;;;1.33;0.50;;;22.80;57.60;;;;;;5092141;28;20055;-63
2022/08/30 12:21:14;;;;;;;1.10;0.43;;;22.80;57.70;;;;;;5076588;28;20056;-63
2022/08/30 12:24:17;;;;;;;1.83;0.60;;;22.80;57.60;;;;;;5093294;28;20044;-64
2022/08/30 12:26:44;;;;;;;2.13;0.50;;;22.80;57.50;;;;;;5091064;28;20044;-64
2022/08/30 12:29:25;;;;;;;4.30;0.50;;;22.80;57.50;;;;;;5094177;28;20085;-64
2022/08/30 12:32:01;;;;;;;1.48;0.82;;;22.80;57.30;;;;;;5092744;28;20047;-63
2022/08/30 12:34:28;;;;;;;1.88;0.70;;;22.80;57.50;;;;;;5074517;28;20051;-64
2022/08/30 12:36:57;;;;;;;3.90;0.52;;;22.80;57.50;;;;;;5093619;28;20617;-64
2022/08/30 12:39:28;;;;;;;3.85;0.70;;;22.90;57.60;;;;;;5092926;28;20492;-63
2022/08/30 12:41:55;;;;;;;3.38;0.60;;;22.80;57.50;;;;;;5093850;28;20048;-63
2022/08/30 12:44:23;;;;;;;4.70;0.77;;;22.90;57.60;;;;;;5092062;28;20044;-63
2022/08/30 12:46:51;;;;;;;2.28;0.50;;;22.90;57.60;;;;;;5075128;28;20484;-63
2022/08/30 12:49:17;;;;;;;1.95;0.52;;;22.90;57.50;;;;;;5074852;28;20044;-63
2022/08/30 12:51:43;;;;;;;3.58;0.80;;;22.90;57.60;;;;;;5075734;28;20040;-63
2022/08/30 12:54:14;;;;;;;4.95;0.70;;;22.90;57.60;;;;;;5074446;28;20448;-64
2022/08/30 12:57:01;;;;;;;2.42;0.82;;;22.90;57.60;;;;;;5086615;28;20048;-63
2022/08/30 12:59:46;;;;;;;2.88;0.60;;;22.90;57.60;;;;;;5090197;28;20401;-64
2022/08/30 13:02:13;;;;;;;1.67;0.50;;;22.90;57.60;;;;;;5092833;28;20127;-63
2022/08/30 13:04:38;;;;;;;1.65;0.50;;;22.90;57.70;;;;;;5093139;28;20518;-63